createdAt,value
2019-03-23T00:00:10.313Z,0
2019-03-23T00:00:50.877Z,0
2019-03-23T00:01:31.432Z,0
2019-03-23T00:02:11.992Z,0
2019-03-23T00:02:52.541Z,0
2019-03-23T00:03:33.104Z,0
2019-03-23T00:04:13.658Z,0
2019-03-23T00:04:54.246Z,0
2019-03-23T00:05:34.814Z,0
2019-03-23T00:06:15.368Z,0
2019-03-23T00:06:55.923Z,0
2019-03-23T00:07:36.471Z,0
2019-03-23T00:08:17.042Z,0
2019-03-23T00:08:57.602Z,0
2019-03-23T00:09:38.173Z,0
2019-03-23T00:10:18.733Z,0
2019-03-23T00:10:59.309Z,0
2019-03-23T00:11:39.908Z,0
2019-03-23T00:12:20.466Z,0
2019-03-23T00:13:01.042Z,0
2019-03-23T00:13:41.614Z,0
2019-03-23T00:14:22.179Z,0
2019-03-23T00:15:02.742Z,0
2019-03-23T00:15:43.322Z,0
2019-03-23T00:16:23.870Z,0
2019-03-23T00:17:04.456Z,0
2019-03-23T00:17:45.011Z,0
2019-03-23T00:18:25.565Z,0
2019-03-23T00:19:06.200Z,0
2019-03-23T00:19:46.769Z,0
2019-03-23T00:20:27.353Z,0
2019-03-23T00:21:07.916Z,0
2019-03-23T00:21:48.484Z,0
2019-03-23T00:22:29.095Z,0
2019-03-23T00:23:09.698Z,0
2019-03-23T00:23:50.274Z,0
2019-03-23T00:24:30.841Z,0
2019-03-23T00:25:11.390Z,0
2019-03-23T00:25:51.941Z,0
2019-03-23T00:26:32.490Z,0
2019-03-23T00:27:13.047Z,0
2019-03-23T00:27:53.605Z,0
2019-03-23T00:28:34.192Z,0
2019-03-23T00:29:14.795Z,0
2019-03-23T00:29:55.413Z,0
2019-03-23T00:30:35.975Z,0
2019-03-23T00:31:16.527Z,0
2019-03-23T00:31:57.093Z,0
2019-03-23T00:32:37.666Z,0
2019-03-23T00:33:18.271Z,0
2019-03-23T00:33:58.814Z,0
2019-03-23T00:34:39.389Z,0
2019-03-23T00:35:20.060Z,0
2019-03-23T00:36:00.623Z,0
2019-03-23T00:36:41.947Z,0
2019-03-23T00:37:21.720Z,0
2019-03-23T00:38:02.312Z,0
2019-03-23T00:38:42.830Z,0
2019-03-23T00:39:23.403Z,0
2019-03-23T00:40:03.969Z,0
2019-03-23T00:40:44.512Z,0
2019-03-23T00:41:25.164Z,0
2019-03-23T00:42:05.718Z,0
2019-03-23T00:42:46.280Z,0
2019-03-23T00:43:26.836Z,0
2019-03-23T00:44:07.597Z,0
2019-03-23T00:44:47.955Z,0
2019-03-23T00:45:28.511Z,0
2019-03-23T00:46:09.073Z,0
2019-03-23T00:46:49.645Z,0
2019-03-23T00:47:30.216Z,0
2019-03-23T00:48:10.785Z,0
2019-03-23T00:48:51.349Z,0
2019-03-23T00:49:31.885Z,0
2019-03-23T00:50:12.438Z,0
2019-03-23T00:50:53.000Z,0
2019-03-23T00:51:33.560Z,0
2019-03-23T00:52:14.123Z,0
2019-03-23T00:52:54.703Z,0
2019-03-23T00:53:35.265Z,0
2019-03-23T00:54:15.829Z,0
2019-03-23T00:54:56.399Z,0
2019-03-23T00:55:36.954Z,0
2019-03-23T00:56:17.525Z,0
2019-03-23T00:56:58.083Z,0
2019-03-23T00:57:38.644Z,0
2019-03-23T00:58:19.212Z,0
2019-03-23T00:58:59.764Z,0
2019-03-23T00:59:40.316Z,0
2019-03-23T01:00:20.876Z,0
2019-03-23T01:01:01.442Z,0
2019-03-23T01:01:42.035Z,0
2019-03-23T01:02:22.584Z,0
2019-03-23T01:03:03.153Z,0
2019-03-23T01:03:43.723Z,0
2019-03-23T01:04:24.272Z,0
2019-03-23T01:05:04.825Z,0
2019-03-23T01:05:45.370Z,0
2019-03-23T01:06:25.926Z,0
2019-03-23T01:07:06.487Z,0
2019-03-23T01:07:47.056Z,0
2019-03-23T01:08:27.623Z,0
2019-03-23T01:09:08.178Z,0
2019-03-23T01:09:48.772Z,0
2019-03-23T01:10:29.334Z,0
2019-03-23T01:11:09.891Z,0
2019-03-23T01:11:50.450Z,0
2019-03-23T01:16:11.291Z,0
2019-03-23T01:16:51.873Z,0
2019-03-23T01:17:32.422Z,0
2019-03-23T01:18:12.982Z,0
2019-03-23T01:18:53.552Z,0
2019-03-23T01:19:34.100Z,0
2019-03-23T01:20:17.280Z,0
2019-03-23T01:20:57.833Z,0
2019-03-23T01:21:38.394Z,0
2019-03-23T01:22:18.951Z,0
2019-03-23T01:22:59.516Z,0
2019-03-23T01:23:40.070Z,0
2019-03-23T01:24:20.639Z,0
2019-03-23T01:25:01.195Z,0
2019-03-23T01:25:41.760Z,0
2019-03-23T01:26:22.319Z,0
2019-03-23T01:27:02.883Z,0
2019-03-23T01:27:43.442Z,0
2019-03-23T01:28:23.999Z,0
2019-03-23T01:29:04.551Z,0
2019-03-23T01:29:45.114Z,0
2019-03-23T01:30:25.696Z,0
2019-03-23T01:31:06.273Z,0
2019-03-23T01:31:46.833Z,0
2019-03-23T01:32:27.383Z,0
2019-03-23T01:33:07.945Z,0
2019-03-23T01:33:48.537Z,0
2019-03-23T01:34:29.083Z,0
2019-03-23T01:35:09.657Z,0
2019-03-23T01:35:50.211Z,0
2019-03-23T01:36:30.764Z,0
2019-03-23T01:37:11.357Z,0
2019-03-23T01:37:51.914Z,0
2019-03-23T01:38:32.473Z,0
2019-03-23T01:39:13.038Z,0
2019-03-23T01:39:53.602Z,0
2019-03-23T01:40:36.310Z,0
2019-03-23T01:41:14.776Z,0
2019-03-23T01:41:55.345Z,0
2019-03-23T01:42:35.905Z,0
2019-03-23T01:43:16.453Z,0
2019-03-23T01:43:57.014Z,0
2019-03-23T01:44:37.581Z,0
2019-03-23T01:45:18.143Z,0
2019-03-23T01:45:58.745Z,0
2019-03-23T01:46:39.309Z,0
2019-03-23T01:47:19.870Z,0
2019-03-23T01:48:00.432Z,0
2019-03-23T01:48:41.014Z,0
2019-03-23T01:49:21.574Z,0
2019-03-23T01:50:02.129Z,0
2019-03-23T01:50:42.705Z,0
2019-03-23T01:51:23.259Z,0
2019-03-23T01:52:03.835Z,0
2019-03-23T01:52:44.396Z,0
2019-03-23T01:53:24.954Z,0
2019-03-23T01:54:05.513Z,0
2019-03-23T01:54:46.080Z,0
2019-03-23T01:55:26.706Z,0
2019-03-23T01:56:07.268Z,0
2019-03-23T01:56:47.827Z,0
2019-03-23T01:57:28.377Z,0
2019-03-23T01:58:08.955Z,0
2019-03-23T01:58:49.528Z,0
2019-03-23T01:59:30.078Z,0
2019-03-23T02:00:10.652Z,0
2019-03-23T02:00:51.204Z,0
2019-03-23T02:01:31.790Z,0
2019-03-23T02:02:12.361Z,0
2019-03-23T02:02:52.930Z,0
2019-03-23T02:03:33.506Z,0
2019-03-23T02:04:14.065Z,0
2019-03-23T02:04:54.637Z,0
2019-03-23T02:05:35.194Z,0
2019-03-23T02:06:15.746Z,0
2019-03-23T02:06:56.302Z,0
2019-03-23T02:07:36.874Z,0
2019-03-23T02:08:17.425Z,0
2019-03-23T02:08:57.982Z,0
2019-03-23T02:09:38.532Z,0
2019-03-23T02:10:19.106Z,0
2019-03-23T02:10:59.662Z,0
2019-03-23T02:11:40.242Z,0
2019-03-23T02:12:20.808Z,0
2019-03-23T02:13:01.460Z,0
2019-03-23T02:13:42.025Z,0
2019-03-23T02:14:23.013Z,0
2019-03-23T02:15:03.571Z,0
2019-03-23T02:15:44.129Z,0
2019-03-23T02:16:24.689Z,0
2019-03-23T02:17:05.261Z,0
2019-03-23T02:17:45.820Z,0
2019-03-23T02:18:26.379Z,0
2019-03-23T02:19:06.932Z,0
2019-03-23T02:19:47.497Z,0
2019-03-23T02:20:28.054Z,0
2019-03-23T02:21:08.611Z,0
2019-03-23T02:21:49.159Z,0
2019-03-23T02:22:29.725Z,0
2019-03-23T02:23:10.288Z,0
2019-03-23T02:23:50.850Z,0
2019-03-23T02:24:31.403Z,0
2019-03-23T02:25:11.971Z,0
2019-03-23T02:25:52.533Z,0
2019-03-23T02:26:33.089Z,0
2019-03-23T02:27:13.645Z,0
2019-03-23T02:27:54.196Z,0
2019-03-23T02:28:34.750Z,0
2019-03-23T02:29:15.293Z,0
2019-03-23T02:29:55.853Z,0
2019-03-23T02:30:36.405Z,0
2019-03-23T02:31:16.982Z,0
2019-03-23T02:31:59.277Z,0
2019-03-23T02:32:39.852Z,0
2019-03-23T02:33:20.402Z,0
2019-03-23T02:34:00.965Z,0
2019-03-23T02:34:41.524Z,0
2019-03-23T02:35:22.077Z,0
2019-03-23T02:36:02.628Z,0
2019-03-23T02:36:43.195Z,0
2019-03-23T02:37:27.852Z,0
2019-03-23T02:38:04.349Z,0
2019-03-23T02:38:44.890Z,0
2019-03-23T02:39:25.462Z,0
2019-03-23T02:40:06.049Z,0
2019-03-23T02:40:46.602Z,0
2019-03-23T02:41:27.159Z,0
2019-03-23T02:42:07.712Z,0
2019-03-23T02:42:48.271Z,0
2019-03-23T02:43:28.839Z,0
2019-03-23T02:44:09.402Z,0
2019-03-23T02:44:49.964Z,0
2019-03-23T02:45:30.732Z,0
2019-03-23T02:46:11.115Z,0
2019-03-23T02:46:51.671Z,0
2019-03-23T02:47:32.229Z,0
2019-03-23T02:48:12.798Z,0
2019-03-23T02:48:53.350Z,0
2019-03-23T02:49:33.930Z,0
2019-03-23T02:50:14.486Z,0
2019-03-23T02:50:55.034Z,0
2019-03-23T02:51:35.599Z,0
2019-03-23T02:52:16.176Z,0
2019-03-23T02:52:56.735Z,0
2019-03-23T02:53:37.299Z,0
2019-03-23T02:54:17.861Z,0
2019-03-23T02:54:58.406Z,0
2019-03-23T02:55:38.975Z,0
2019-03-23T02:56:19.537Z,0
2019-03-23T02:57:00.126Z,0
2019-03-23T02:57:40.649Z,0
2019-03-23T02:58:21.265Z,0
2019-03-23T02:59:01.831Z,0
2019-03-23T02:59:42.393Z,0
2019-03-23T03:00:22.948Z,0
2019-03-23T03:01:03.509Z,0
2019-03-23T03:01:44.070Z,0
2019-03-23T03:02:24.639Z,0
2019-03-23T03:03:05.192Z,0
2019-03-23T03:03:45.737Z,0
2019-03-23T03:04:26.302Z,0
2019-03-23T03:05:06.878Z,0
2019-03-23T03:05:47.449Z,0
2019-03-23T03:06:28.008Z,0
2019-03-23T03:07:08.574Z,0
2019-03-23T03:07:49.135Z,0
2019-03-23T03:08:29.694Z,0
2019-03-23T03:09:10.261Z,0
2019-03-23T03:09:50.816Z,0
2019-03-23T03:10:31.399Z,0
2019-03-23T03:11:11.975Z,0
2019-03-23T03:11:52.538Z,0
2019-03-23T03:12:33.095Z,0
2019-03-23T03:13:13.662Z,0
2019-03-23T03:13:54.213Z,0
2019-03-23T03:14:35.281Z,0
2019-03-23T03:15:15.819Z,0
2019-03-23T03:15:56.373Z,0
2019-03-23T03:16:36.929Z,0
2019-03-23T03:17:17.485Z,0
2019-03-23T03:17:58.064Z,0
2019-03-23T03:18:38.629Z,0
2019-03-23T03:19:19.187Z,0
2019-03-23T03:19:59.762Z,0
2019-03-23T03:20:40.325Z,0
2019-03-23T03:21:20.902Z,0
2019-03-23T03:22:01.455Z,0
2019-03-23T03:22:42.006Z,0
2019-03-23T03:23:22.574Z,0
2019-03-23T03:24:03.128Z,0
2019-03-23T03:24:43.697Z,0
2019-03-23T03:25:24.255Z,0
2019-03-23T03:26:04.817Z,0
2019-03-23T03:26:45.373Z,0
2019-03-23T03:27:25.961Z,0
2019-03-23T03:28:06.523Z,0
2019-03-23T03:28:47.082Z,0
2019-03-23T03:29:27.646Z,0
2019-03-23T03:30:08.206Z,0
2019-03-23T03:30:48.775Z,0
2019-03-23T03:31:29.415Z,0
2019-03-23T03:32:09.940Z,0
2019-03-23T03:32:50.462Z,0
2019-03-23T03:33:31.016Z,0
2019-03-23T03:34:11.576Z,0
2019-03-23T03:34:52.128Z,0
2019-03-23T03:35:32.689Z,0
2019-03-23T03:36:13.259Z,0
2019-03-23T03:36:53.812Z,0
2019-03-23T03:37:34.383Z,0
2019-03-23T03:38:14.933Z,0
2019-03-23T03:38:55.490Z,0
2019-03-23T03:39:36.050Z,0
2019-03-23T03:40:16.625Z,0
2019-03-23T03:40:57.164Z,0
2019-03-23T03:41:37.721Z,0
2019-03-23T03:42:18.278Z,0
2019-03-23T03:42:58.838Z,0
2019-03-23T03:43:39.392Z,0
2019-03-23T03:44:19.956Z,0
2019-03-23T03:45:00.512Z,0
2019-03-23T03:45:41.069Z,0
2019-03-23T03:46:21.683Z,0
2019-03-23T03:47:02.193Z,0
2019-03-23T03:47:42.765Z,0
2019-03-23T03:48:23.315Z,0
2019-03-23T03:49:12.051Z,0
2019-03-23T03:49:44.462Z,0
2019-03-23T03:50:25.034Z,0
2019-03-23T03:51:05.585Z,0
2019-03-23T03:51:46.160Z,0
2019-03-23T03:52:26.739Z,0
2019-03-23T03:53:07.300Z,0
2019-03-23T03:53:47.857Z,0
2019-03-23T03:54:28.412Z,0
2019-03-23T03:55:08.964Z,0
2019-03-23T03:55:49.507Z,0
2019-03-23T03:56:30.066Z,0
2019-03-23T03:57:10.633Z,0
2019-03-23T03:57:51.192Z,0
2019-03-23T03:58:31.757Z,0
2019-03-23T03:59:12.325Z,0
2019-03-23T03:59:52.880Z,0
2019-03-23T04:00:33.440Z,0
2019-03-23T04:01:13.989Z,0
2019-03-23T04:01:54.544Z,0
2019-03-23T04:02:35.106Z,0
2019-03-23T04:03:15.678Z,0
2019-03-23T04:03:56.343Z,0
2019-03-23T04:04:36.841Z,0
2019-03-23T04:05:17.385Z,0
2019-03-23T04:05:57.946Z,0
2019-03-23T04:06:38.522Z,0
2019-03-23T04:07:19.069Z,0
2019-03-23T04:08:10.321Z,0
2019-03-23T04:08:40.206Z,0
2019-03-23T04:09:20.777Z,0
2019-03-23T04:10:01.340Z,0
2019-03-23T04:10:41.904Z,0
2019-03-23T04:11:22.476Z,0
2019-03-23T04:12:03.031Z,0
2019-03-23T04:12:43.593Z,0
2019-03-23T04:13:24.159Z,0
2019-03-23T04:14:04.716Z,0
2019-03-23T04:14:45.272Z,0
2019-03-23T04:15:25.855Z,0
2019-03-23T04:16:06.423Z,0
2019-03-23T04:16:46.985Z,0
2019-03-23T04:17:27.538Z,0
2019-03-23T04:18:08.091Z,0
2019-03-23T04:18:48.656Z,0
2019-03-23T04:19:29.223Z,0
2019-03-23T04:20:09.782Z,0
2019-03-23T04:20:50.338Z,0
2019-03-23T04:21:30.911Z,0
2019-03-23T04:22:11.466Z,0
2019-03-23T04:22:52.022Z,0
2019-03-23T04:23:32.574Z,0
2019-03-23T04:24:13.130Z,0
2019-03-23T04:24:53.695Z,0
2019-03-23T04:25:34.254Z,0
2019-03-23T04:26:14.815Z,0
2019-03-23T04:26:55.357Z,0
2019-03-23T04:27:35.904Z,0
2019-03-23T04:28:16.481Z,0
2019-03-23T04:28:57.045Z,0
2019-03-23T04:29:37.648Z,0
2019-03-23T04:30:18.181Z,0
2019-03-23T04:30:58.731Z,0
2019-03-23T04:31:39.280Z,0
2019-03-23T04:32:19.845Z,0
2019-03-23T04:33:00.405Z,4
2019-03-23T04:33:40.953Z,0
2019-03-23T04:34:21.513Z,0
2019-03-23T04:35:02.073Z,0
2019-03-23T04:35:42.671Z,4
2019-03-23T04:36:23.231Z,4
2019-03-23T04:37:03.783Z,0
2019-03-23T04:37:44.359Z,4
2019-03-23T04:38:24.921Z,4
2019-03-23T04:39:05.482Z,4
2019-03-23T04:39:46.034Z,4
2019-03-23T04:40:26.605Z,4
2019-03-23T04:41:07.164Z,4
2019-03-23T04:41:47.728Z,8
2019-03-23T04:42:28.291Z,4
2019-03-23T04:43:08.849Z,8
2019-03-23T04:43:49.458Z,8
2019-03-23T04:44:30.024Z,12
2019-03-23T04:45:10.588Z,12
2019-03-23T04:45:51.152Z,12
2019-03-23T04:46:31.714Z,12
2019-03-23T04:47:12.278Z,16
2019-03-23T04:47:52.835Z,16
2019-03-23T04:48:33.400Z,20
2019-03-23T04:49:13.968Z,20
2019-03-23T04:49:54.548Z,24
2019-03-23T04:50:35.103Z,24
2019-03-23T04:51:15.656Z,28
2019-03-23T04:51:56.225Z,32
2019-03-23T04:52:36.773Z,32
2019-03-23T04:53:17.350Z,36
2019-03-23T04:53:57.901Z,40
2019-03-23T04:54:38.989Z,40
2019-03-23T04:55:19.004Z,48
2019-03-23T04:55:59.569Z,52
2019-03-23T04:56:40.126Z,56
2019-03-23T04:57:20.685Z,64
2019-03-23T04:58:01.262Z,68
2019-03-23T04:58:41.823Z,72
2019-03-23T04:59:22.393Z,76
2019-03-23T05:00:02.967Z,80
2019-03-23T05:00:43.532Z,88
2019-03-23T05:01:24.098Z,92
2019-03-23T05:02:04.666Z,100
2019-03-23T05:02:45.221Z,108
2019-03-23T05:03:25.786Z,112
2019-03-23T05:04:06.348Z,120
2019-03-23T05:04:46.912Z,128
2019-03-23T05:05:27.467Z,132
2019-03-23T05:06:08.033Z,140
2019-03-23T05:06:48.595Z,148
2019-03-23T05:07:29.161Z,148
2019-03-23T05:08:09.726Z,156
2019-03-23T05:08:50.279Z,180
2019-03-23T05:09:30.845Z,184
2019-03-23T05:10:11.407Z,184
2019-03-23T05:10:51.966Z,200
2019-03-23T05:11:32.526Z,208
2019-03-23T05:12:13.118Z,232
2019-03-23T05:12:53.676Z,244
2019-03-23T05:13:34.237Z,256
2019-03-23T05:14:14.803Z,276
2019-03-23T05:14:55.362Z,276
2019-03-23T05:15:35.919Z,312
2019-03-23T05:16:16.490Z,320
2019-03-23T05:16:57.043Z,328
2019-03-23T05:17:37.610Z,340
2019-03-23T05:18:18.165Z,356
2019-03-23T05:18:58.719Z,384
2019-03-23T05:19:39.291Z,416
2019-03-23T05:20:19.849Z,420
2019-03-23T05:21:00.414Z,444
2019-03-23T05:21:40.973Z,464
2019-03-23T05:22:21.538Z,488
2019-03-23T05:23:02.102Z,516
2019-03-23T05:23:42.655Z,524
2019-03-23T05:24:23.215Z,548
2019-03-23T05:25:03.782Z,584
2019-03-23T05:25:44.355Z,616
2019-03-23T05:26:24.908Z,628
2019-03-23T05:27:05.470Z,664
2019-03-23T05:27:46.030Z,692
2019-03-23T05:28:26.590Z,716
2019-03-23T05:29:07.153Z,748
2019-03-23T05:29:47.729Z,800
2019-03-23T05:30:28.288Z,832
2019-03-23T05:31:08.851Z,848
2019-03-23T05:31:49.421Z,880
2019-03-23T05:32:29.979Z,904
2019-03-23T05:33:10.536Z,932
2019-03-23T05:33:51.097Z,960
2019-03-23T05:34:31.683Z,1008
2019-03-23T05:35:12.246Z,1052
2019-03-23T05:35:52.811Z,1108
2019-03-23T05:36:33.378Z,1188
2019-03-23T05:37:13.929Z,1212
2019-03-23T05:37:54.496Z,1240
2019-03-23T05:38:43.776Z,1340
2019-03-23T05:39:15.620Z,1436
2019-03-23T05:39:56.177Z,1492
2019-03-23T05:40:36.729Z,1480
2019-03-23T05:41:17.296Z,1500
2019-03-23T05:41:57.850Z,1588
2019-03-23T05:42:38.397Z,1676
2019-03-23T05:43:18.961Z,1684
2019-03-23T05:43:59.527Z,1760
2019-03-23T05:44:40.086Z,1780
2019-03-23T05:45:20.643Z,1864
2019-03-23T05:46:01.202Z,1872
2019-03-23T05:46:41.808Z,1864
2019-03-23T05:47:22.363Z,1884
2019-03-23T05:48:02.952Z,1996
2019-03-23T05:48:43.544Z,2056
2019-03-23T05:49:24.100Z,2100
2019-03-23T05:50:04.656Z,2176
2019-03-23T05:50:45.225Z,2240
2019-03-23T05:51:25.790Z,2320
2019-03-23T05:52:06.352Z,2360
2019-03-23T05:52:46.914Z,2460
2019-03-23T05:53:27.479Z,2604
2019-03-23T05:54:08.051Z,2684
2019-03-23T05:54:48.606Z,2772
2019-03-23T05:55:29.170Z,2800
2019-03-23T05:56:09.735Z,2948
2019-03-23T05:56:50.293Z,2984
2019-03-23T05:57:30.855Z,3044
2019-03-23T05:58:11.421Z,3104
2019-03-23T05:58:51.985Z,3204
2019-03-23T05:59:32.533Z,3240
2019-03-23T06:00:13.111Z,3404
2019-03-23T06:00:53.664Z,3576
2019-03-23T06:01:34.255Z,3500
2019-03-23T06:02:14.836Z,3636
2019-03-23T06:02:55.392Z,3704
2019-03-23T06:03:35.970Z,3756
2019-03-23T06:04:16.556Z,3784
2019-03-23T06:04:57.116Z,3808
2019-03-23T06:05:37.675Z,3752
2019-03-23T06:06:18.225Z,3968
2019-03-23T06:06:58.792Z,4056
2019-03-23T06:07:39.354Z,4240
2019-03-23T06:08:19.931Z,4288
2019-03-23T06:09:00.476Z,4384
2019-03-23T06:09:41.030Z,4408
2019-03-23T06:10:21.715Z,4376
2019-03-23T06:11:02.275Z,4480
2019-03-23T06:11:42.845Z,4548
2019-03-23T06:12:23.397Z,4384
2019-03-23T06:13:03.951Z,4480
2019-03-23T06:13:44.509Z,4564
2019-03-23T06:14:25.306Z,4560
2019-03-23T06:15:05.857Z,4584
2019-03-23T06:15:46.412Z,4660
2019-03-23T06:16:26.971Z,4672
2019-03-23T06:17:07.529Z,4784
2019-03-23T06:17:48.085Z,4844
2019-03-23T06:18:28.652Z,4896
2019-03-23T06:19:09.213Z,4956
2019-03-23T06:19:49.766Z,4984
2019-03-23T06:20:30.345Z,5032
2019-03-23T06:21:10.916Z,5032
2019-03-23T06:21:51.481Z,5152
2019-03-23T06:22:32.073Z,5236
2019-03-23T06:23:12.647Z,5192
2019-03-23T06:23:53.206Z,5352
2019-03-23T06:24:33.763Z,5348
2019-03-23T06:25:14.328Z,5400
2019-03-23T06:25:54.897Z,5520
2019-03-23T06:26:35.480Z,5524
2019-03-23T06:27:16.061Z,5624
2019-03-23T06:27:56.626Z,5644
2019-03-23T06:28:37.176Z,5748
2019-03-23T06:29:17.737Z,5812
2019-03-23T06:29:58.306Z,5912
2019-03-23T06:30:38.851Z,5900
2019-03-23T06:31:19.427Z,6020
2019-03-23T06:31:59.993Z,6024
2019-03-23T06:32:40.551Z,6072
2019-03-23T06:33:21.094Z,6128
2019-03-23T06:34:01.651Z,6396
2019-03-23T06:34:42.208Z,6544
2019-03-23T06:35:22.778Z,6300
2019-03-23T06:36:03.337Z,6244
2019-03-23T06:36:43.885Z,6360
2019-03-23T06:37:24.485Z,6568
2019-03-23T06:38:05.059Z,6532
2019-03-23T06:38:45.632Z,6620
2019-03-23T06:39:26.211Z,6696
2019-03-23T06:40:06.917Z,6728
2019-03-23T06:40:47.472Z,6784
2019-03-23T06:41:28.740Z,6820
2019-03-23T06:42:08.606Z,6948
2019-03-23T06:42:59.030Z,6840
2019-03-23T06:43:29.716Z,6916
2019-03-23T06:44:10.281Z,6932
2019-03-23T06:44:50.850Z,7036
2019-03-23T06:45:31.412Z,7056
2019-03-23T06:46:11.975Z,7004
2019-03-23T06:46:52.536Z,7124
2019-03-23T06:47:33.103Z,7180
2019-03-23T06:48:13.672Z,7216
2019-03-23T06:48:54.244Z,7272
2019-03-23T06:49:34.817Z,7236
2019-03-23T06:50:15.381Z,7324
2019-03-23T06:50:55.948Z,7304
2019-03-23T06:51:36.517Z,7308
2019-03-23T06:52:17.070Z,7504
2019-03-23T06:52:57.650Z,7536
2019-03-23T06:53:38.218Z,7512
2019-03-23T06:54:18.776Z,7500
2019-03-23T06:54:59.339Z,7544
2019-03-23T06:55:39.903Z,7728
2019-03-23T06:56:20.467Z,7908
2019-03-23T06:57:01.026Z,10964
2019-03-23T06:57:41.594Z,14688
2019-03-23T06:58:22.157Z,17600
2019-03-23T06:59:02.754Z,23680
2019-03-23T06:59:43.280Z,31776
2019-03-23T07:00:23.848Z,34784
2019-03-23T07:01:04.418Z,34720
2019-03-23T07:01:45.014Z,33024
2019-03-23T07:02:26.555Z,27456
2019-03-23T07:03:07.399Z,21440
2019-03-23T07:03:48.284Z,25216
2019-03-23T07:04:28.853Z,26688
2019-03-23T07:05:09.410Z,30720
2019-03-23T07:05:49.987Z,34976
2019-03-23T07:06:30.593Z,36256
2019-03-23T07:07:11.179Z,38208
2019-03-23T07:07:51.752Z,41888
2019-03-23T07:08:32.425Z,42080
2019-03-23T07:09:16.288Z,46112
2019-03-23T07:09:54.315Z,49056
2019-03-23T07:10:34.872Z,46752
2019-03-23T07:11:15.462Z,37472
2019-03-23T07:11:56.031Z,29440
2019-03-23T07:12:36.839Z,31200
2019-03-23T07:13:17.409Z,37216
2019-03-23T07:13:57.963Z,42816
2019-03-23T07:14:38.543Z,46304
2019-03-23T07:15:20.454Z,47040
2019-03-23T07:15:59.710Z,42688
2019-03-23T07:16:40.268Z,35520
2019-03-23T07:17:21.034Z,30528
2019-03-23T07:18:01.590Z,32192
2019-03-23T07:18:42.153Z,38624
2019-03-23T07:19:22.758Z,41440
2019-03-23T07:20:03.331Z,41248
2019-03-23T07:20:43.882Z,36704
2019-03-23T07:21:24.445Z,35552
